Time;durP1;ratioP1;P1;durP2;ratioP2;P2;SDS_P1;SDS_P2;PMS_P1;PMS_P2;Temp;Humidity;BMP_temperature;BMP_pressure;BME280_temperature;BME280_humidity;BME280_pressure;Samples;Min_cycle;Max_cycle;Signal;HPM_P1;HPM_P2
2021/12/17 00:02:28;;;;;;;31.27;12.65;;;8.50;99.90;;;;;;5111524;28;20525;-66
2021/12/17 00:07:01;;;;;;;29.25;12.77;;;8.50;99.90;;;;;;5110384;28;20063;-68
2021/12/17 00:09:26;;;;;;;29.15;12.50;;;8.50;99.90;;;;;;5111382;28;20043;-66
2021/12/17 00:11:53;;;;;;;26.42;11.43;;;8.50;99.90;;;;;;5097911;28;20141;-67
2021/12/17 00:14:28;;;;;;;28.58;11.85;;;8.50;99.90;;;;;;5109685;28;20059;-67
2021/12/17 00:16:58;;;;;;;30.55;13.23;;;8.50;99.90;;;;;;5131740;27;20047;-67
2021/12/17 00:49:04;;;;;;;15.05;7.38;;;8.40;99.90;;;;;;5113903;28;20309;-67
2021/12/17 00:54:23;;;;;;;14.63;6.75;;;8.40;99.90;;;;;;5113775;28;20044;-69
2021/12/17 00:56:52;;;;;;;13.13;6.07;;;8.40;99.90;;;;;;5114020;28;20047;-66
2021/12/17 00:59:19;;;;;;;11.50;5.70;;;8.30;99.90;;;;;;5113477;28;20193;-66
2021/12/17 01:01:46;;;;;;;15.02;6.18;;;8.30;99.90;;;;;;5113931;28;20055;-67
2021/12/17 01:04:13;;;;;;;11.45;6.32;;;8.40;99.90;;;;;;5113821;28;20146;-66
2021/12/17 01:06:39;;;;;;;13.90;6.68;;;8.30;99.90;;;;;;5112796;28;20044;-68
2021/12/17 01:09:07;;;;;;;13.80;6.13;;;8.40;99.90;;;;;;5113322;28;20036;-67
2021/12/17 01:11:33;;;;;;;13.65;6.53;;;8.30;99.90;;;;;;5113154;28;20093;-67
2021/12/17 01:13:59;;;;;;;14.07;6.63;;;8.30;99.90;;;;;;5112942;28;20051;-68
2021/12/17 01:16:26;;;;;;;14.23;6.93;;;8.30;99.90;;;;;;5095749;28;20044;-67
2021/12/17 01:19:21;;;;;;;13.38;6.22;;;8.30;99.90;;;;;;5095973;28;20075;-69
2021/12/17 01:21:58;;;;;;;15.85;6.85;;;8.20;99.90;;;;;;5111161;28;20047;-68
2021/12/17 01:35:41;;;;;;;10.27;5.35;;;8.10;99.90;;;;;;5112671;28;20086;-67
2021/12/17 01:41:45;;;;;;;9.27;4.38;;;8.20;99.90;;;;;;5113082;28;20086;-67
2021/12/17 01:44:02;;;;;;;10.13;4.97;;;8.20;99.90;;;;;;5112499;28;20047;-67
2021/12/17 01:46:31;;;;;;;9.07;4.82;;;8.20;99.90;;;;;;5112443;28;20087;-68
2021/12/17 02:00:03;;;;;;;6.55;3.13;;;8.30;99.90;;;;;;5112542;28;20507;-68
2021/12/17 02:02:32;;;;;;;7.25;3.63;;;8.30;99.90;;;;;;5113300;28;20122;-67
2021/12/17 02:04:58;;;;;;;5.75;3.13;;;8.30;99.90;;;;;;5112504;28;20138;-67
2021/12/17 02:07:24;;;;;;;8.63;3.65;;;8.30;99.90;;;;;;5094856;28;20193;-69
2021/12/17 02:22:01;;;;;;;6.38;3.40;;;8.20;99.90;;;;;;5112349;28;20087;-67
2021/12/17 02:30:01;;;;;;;6.53;3.60;;;8.20;99.90;;;;;;5111513;28;20542;-67
2021/12/17 02:32:29;;;;;;;5.43;3.38;;;8.20;99.90;;;;;;5110862;28;20138;-71
2021/12/17 02:35:43;;;;;;;7.80;3.88;;;8.30;99.90;;;;;;5094766;28;20055;-67
2021/12/17 02:37:43;;;;;;;5.30;3.22;;;8.30;99.90;;;;;;5103455;28;20557;-68
2021/12/17 02:45:32;;;;;;;6.10;3.75;;;8.30;99.90;;;;;;5111348;28;20495;-71
2021/12/17 02:48:01;;;;;;;6.75;3.65;;;8.20;99.90;;;;;;5094824;28;20051;-67
2021/12/17 02:50:27;;;;;;;5.93;3.38;;;8.20;99.90;;;;;;5111508;28;20047;-71
2021/12/17 02:52:55;;;;;;;6.72;3.80;;;8.10;99.90;;;;;;5111317;28;20096;-66
2021/12/17 02:55:21;;;;;;;6.50;3.88;;;8.20;99.90;;;;;;5112154;28;20086;-67
2021/12/17 02:57:48;;;;;;;6.40;3.80;;;8.10;99.90;;;;;;5110912;28;20047;-67
2021/12/17 03:00:15;;;;;;;6.13;3.53;;;8.10;99.90;;;;;;5111608;28;20056;-68
2021/12/17 03:02:43;;;;;;;6.40;3.53;;;8.10;99.90;;;;;;5093805;28;20465;-67
2021/12/17 03:05:09;;;;;;;6.72;3.85;;;8.10;99.90;;;;;;5111195;28;20048;-67
2021/12/17 03:07:38;;;;;;;6.38;3.90;;;8.10;99.90;;;;;;5110570;28;20039;-67
2021/12/17 03:10:08;;;;;;;6.75;4.03;;;8.10;99.90;;;;;;5111222;28;20047;-67
2021/12/17 03:12:45;;;;;;;6.13;3.67;;;8.10;99.90;;;;;;5110511;28;20055;-67
2021/12/17 03:25:58;;;;;;;5.93;3.90;;;8.20;99.90;;;;;;5110125;28;20493;-68
2021/12/17 03:28:24;;;;;;;6.78;3.80;;;8.20;99.90;;;;;;5093803;28;20512;-68
2021/12/17 03:30:50;;;;;;;5.25;3.38;;;8.20;99.90;;;;;;5110698;28;20090;-67
2021/12/17 03:33:16;;;;;;;6.32;3.97;;;8.20;99.90;;;;;;5110820;28;20123;-67
2021/12/17 03:35:42;;;;;;;5.32;3.58;;;8.20;99.90;;;;;;5127613;27;20050;-67
2021/12/17 03:38:08;;;;;;;5.75;3.75;;;8.20;99.90;;;;;;5094026;28;20051;-67
2021/12/17 03:40:34;;;;;;;5.78;3.60;;;8.20;99.90;;;;;;5110555;28;20043;-71
2021/12/17 03:43:04;;;;;;;5.70;3.60;;;8.20;99.90;;;;;;5093702;28;20050;-67
2021/12/17 03:45:30;;;;;;;5.15;3.30;;;8.20;99.90;;;;;;5114041;28;20089;-68
2021/12/17 03:47:56;;;;;;;6.00;3.90;;;8.20;99.90;;;;;;5114614;28;20139;-69
2021/12/17 03:50:22;;;;;;;5.75;3.47;;;8.20;99.90;;;;;;5115119;28;20501;-67
2021/12/17 03:52:49;;;;;;;5.43;3.13;;;8.20;99.90;;;;;;5115684;27;20055;-69
2021/12/17 03:55:14;;;;;;;4.93;3.40;;;8.30;99.90;;;;;;5114868;28;20435;-68
2021/12/17 03:57:40;;;;;;;5.97;3.47;;;8.30;99.90;;;;;;5114313;28;20044;-68
2021/12/17 04:00:09;;;;;;;5.45;3.15;;;8.30;99.90;;;;;;5114886;28;20043;-68
2021/12/17 04:02:35;;;;;;;5.63;3.28;;;8.30;99.90;;;;;;5131796;27;20087;-72
2021/12/17 04:05:02;;;;;;;5.38;3.67;;;8.30;99.90;;;;;;5114333;28;20079;-68
2021/12/17 04:07:28;;;;;;;6.30;3.17;;;8.30;99.90;;;;;;5131733;27;20051;-68
2021/12/17 04:09:53;;;;;;;4.88;3.22;;;8.30;99.90;;;;;;5131451;27;20050;-68
2021/12/17 04:12:24;;;;;;;5.72;3.50;;;8.30;99.90;;;;;;5114474;28;20464;-68
2021/12/17 04:14:51;;;;;;;6.93;4.10;;;8.30;99.90;;;;;;5114149;28;20052;-67
2021/12/17 04:17:23;;;;;;;6.00;3.50;;;8.20;99.90;;;;;;5114570;28;20484;-68
2021/12/17 04:19:49;;;;;;;6.85;4.10;;;8.20;99.90;;;;;;5114197;28;20052;-68
2021/12/17 04:22:15;;;;;;;6.00;3.90;;;8.30;99.90;;;;;;5114381;28;20050;-67
2021/12/17 04:24:40;;;;;;;5.93;4.07;;;8.20;99.90;;;;;;5114031;28;20054;-72
2021/12/17 04:27:07;;;;;;;6.43;4.18;;;8.20;99.90;;;;;;5097333;28;19919;-68
2021/12/17 04:29:39;;;;;;;8.17;4.37;;;8.20;99.90;;;;;;5097138;28;20511;-69
2021/12/17 04:32:05;;;;;;;;;;;8.20;99.90;;;;;;5114684;28;19967;-68
2021/12/17 04:34:31;;;;;;;;;;;8.20;99.90;;;;;;5097608;28;19963;-68
2021/12/17 04:36:57;;;;;;;;;;;8.20;99.90;;;;;;5080379;28;19927;-68
2021/12/17 04:39:24;;;;;;;;;;;8.20;99.90;;;;;;5097826;28;20340;-68
2021/12/17 04:41:55;;;;;;;;;;;8.20;99.90;;;;;;5114262;28;19975;-68
2021/12/17 04:44:30;;;;;;;;;;;8.20;99.90;;;;;;5114667;28;20375;-67
2021/12/17 04:57:40;;;;;;;12.43;6.65;;;8.10;99.90;;;;;;5113302;28;20044;-68
2021/12/17 05:00:18;;;;;;;10.77;5.93;;;8.10;99.90;;;;;;5096121;28;20047;-68
2021/12/17 05:02:47;;;;;;;;;;;8.10;99.90;;;;;;5096835;28;20054;-71
2021/12/17 05:05:13;;;;;;;;;;;8.10;99.90;;;;;;5097353;28;20005;-68
2021/12/17 05:07:43;;;;;;;;;;;8.10;99.90;;;;;;5096905;28;20056;-67
2021/12/17 05:10:47;;;;;;;;;;;8.10;99.90;;;;;;5113941;28;19949;-69
2021/12/17 05:19:12;;;;;;;;;;;8.10;99.90;;;;;;5113896;28;20322;-67
2021/12/17 05:21:30;;;;;;;12.27;7.03;;;8.20;99.90;;;;;;5111821;28;20313;-67
2021/12/17 05:23:56;;;;;;;12.48;7.15;;;8.20;99.90;;;;;;5095734;28;20390;-68
2021/12/17 05:26:22;;;;;;;12.60;7.45;;;8.20;99.90;;;;;;5112947;28;20040;-68
2021/12/17 05:28:50;;;;;;;12.68;7.40;;;8.20;99.90;;;;;;5112449;28;20086;-70
2021/12/17 05:31:18;;;;;;;14.95;8.18;;;8.20;99.90;;;;;;5113153;28;20443;-67
2021/12/17 05:33:44;;;;;;;13.95;7.68;;;8.10;99.90;;;;;;5113174;28;20056;-67
2021/12/17 05:36:10;;;;;;;10.82;7.05;;;8.20;99.90;;;;;;5112687;28;20127;-68
2021/12/17 05:38:36;;;;;;;15.63;8.50;;;8.20;99.90;;;;;;5113042;28;20043;-68
2021/12/17 05:41:02;;;;;;;14.55;7.63;;;8.30;99.90;;;;;;5112566;28;20485;-68
2021/12/17 05:43:28;;;;;;;14.43;8.52;;;8.20;99.90;;;;;;5112929;28;20055;-67
2021/12/17 05:48:23;;;;;;;15.45;8.65;;;8.20;99.90;;;;;;5113992;28;20550;-68
2021/12/17 05:50:52;;;;;;;17.23;8.38;;;8.20;99.90;;;;;;5112639;28;20523;-69
2021/12/17 05:53:19;;;;;;;13.63;8.15;;;8.20;99.90;;;;;;5112734;28;20039;-67
2021/12/17 05:55:45;;;;;;;17.02;8.65;;;8.30;99.90;;;;;;5112637;28;20044;-68
2021/12/17 05:58:11;;;;;;;15.63;8.30;;;8.40;99.90;;;;;;5111847;28;20114;-67
2021/12/17 06:00:40;;;;;;;14.02;7.72;;;8.20;99.90;;;;;;5095606;28;20131;-67
2021/12/17 06:03:06;;;;;;;14.88;8.38;;;8.20;99.90;;;;;;5113229;28;20040;-68
2021/12/17 06:05:32;;;;;;;16.83;8.75;;;8.20;99.90;;;;;;5112294;28;20070;-68
2021/12/17 06:07:58;;;;;;;15.13;8.60;;;8.20;99.90;;;;;;5111664;28;20130;-68
2021/12/17 06:10:25;;;;;;;18.90;8.85;;;8.20;99.90;;;;;;5095261;28;20114;-68
2021/12/17 06:12:51;;;;;;;16.67;8.90;;;8.20;99.90;;;;;;5095187;28;20050;-68
2021/12/17 06:15:19;;;;;;;20.23;8.88;;;8.20;99.90;;;;;;5112660;28;20069;-67
2021/12/17 06:17:45;;;;;;;16.70;8.77;;;8.20;99.90;;;;;;5112022;28;20043;-68
2021/12/17 06:20:13;;;;;;;15.65;8.32;;;8.20;99.90;;;;;;5111631;28;20086;-68
2021/12/17 06:22:39;;;;;;;16.40;8.13;;;8.20;99.90;;;;;;5095069;28;20120;-67
2021/12/17 06:25:07;;;;;;;16.20;8.32;;;8.20;99.90;;;;;;5111321;28;20048;-67
2021/12/17 06:27:33;;;;;;;15.35;8.07;;;8.10;99.90;;;;;;5111995;28;20043;-67
2021/12/17 06:29:58;;;;;;;15.05;8.25;;;8.10;99.90;;;;;;5111510;28;20040;-68
2021/12/17 06:32:25;;;;;;;16.98;8.23;;;8.10;99.90;;;;;;5112095;28;20056;-67
2021/12/17 06:34:51;;;;;;;18.63;8.70;;;8.10;99.90;;;;;;5111513;28;20132;-68
2021/12/17 06:37:18;;;;;;;16.38;8.05;;;8.10;99.90;;;;;;5111452;28;20097;-68
2021/12/17 06:39:46;;;;;;;15.82;7.75;;;8.00;99.90;;;;;;5111683;28;20378;-67
2021/12/17 06:42:12;;;;;;;17.48;8.18;;;8.00;99.90;;;;;;5111335;28;20433;-67
2021/12/17 06:44:39;;;;;;;18.25;8.10;;;8.00;99.90;;;;;;5111733;28;20062;-68
2021/12/17 06:47:11;;;;;;;17.52;8.45;;;8.00;99.90;;;;;;5110652;28;20067;-69
2021/12/17 06:58:19;;;;;;;19.50;9.48;;;8.00;99.90;;;;;;5110280;28;20047;-69
2021/12/17 07:00:42;;;;;;;21.45;8.45;;;7.90;99.90;;;;;;5110942;28;20047;-67
2021/12/17 07:08:50;;;;;;;17.65;8.25;;;8.00;99.90;;;;;;5110494;28;20135;-68
2021/12/17 07:11:32;;;;;;;21.15;9.13;;;8.00;99.90;;;;;;5110805;28;20055;-69
2021/12/17 07:32:45;;;;;;;19.95;9.43;;;8.10;99.90;;;;;;5111118;28;20078;-68
2021/12/17 07:40:24;;;;;;;17.27;8.00;;;8.20;99.90;;;;;;5110691;28;20043;-68
2021/12/17 07:42:50;;;;;;;18.02;9.13;;;8.20;99.90;;;;;;5110993;28;20047;-69
2021/12/17 07:45:16;;;;;;;16.30;8.15;;;8.20;99.90;;;;;;5109949;28;20039;-68
2021/12/17 07:47:42;;;;;;;20.38;8.70;;;8.20;99.90;;;;;;5110386;28;20047;-69
2021/12/17 07:50:07;;;;;;;17.80;8.65;;;8.20;99.90;;;;;;5093709;28;20071;-69
2021/12/17 07:52:33;;;;;;;19.10;9.35;;;8.20;99.90;;;;;;5093574;28;20040;-68
2021/12/17 07:54:59;;;;;;;19.67;8.30;;;8.20;99.90;;;;;;5110448;28;20047;-69
2021/12/17 07:57:25;;;;;;;19.70;8.57;;;8.20;99.90;;;;;;5109861;28;20047;-68
2021/12/17 07:59:51;;;;;;;18.13;8.27;;;8.20;99.90;;;;;;5127372;28;20048;-69
2021/12/17 08:02:17;;;;;;;18.73;8.93;;;8.20;99.90;;;;;;5110127;28;20126;-69
2021/12/17 08:04:43;;;;;;;16.10;9.55;;;8.20;99.90;;;;;;5127392;28;20094;-69
2021/12/17 08:07:08;;;;;;;20.15;9.23;;;8.20;99.90;;;;;;5109986;28;20043;-70
2021/12/17 08:09:35;;;;;;;17.95;9.18;;;8.20;99.90;;;;;;5127498;28;20397;-69
2021/12/17 08:12:00;;;;;;;16.90;8.43;;;8.20;99.90;;;;;;5111558;28;20048;-69
2021/12/17 08:14:28;;;;;;;20.08;9.88;;;8.20;99.90;;;;;;5111099;28;20083;-70
2021/12/17 08:17:03;;;;;;;20.85;9.75;;;8.20;99.90;;;;;;5110413;28;20087;-66
2021/12/17 08:25:12;;;;;;;19.73;9.35;;;8.20;99.90;;;;;;5110270;28;20482;-69
2021/12/17 08:32:36;;;;;;;;;;;8.30;99.90;;;;;;5115302;28;20048;-69
2021/12/17 08:35:02;;;;;;;;;;;8.30;99.90;;;;;;5097619;28;19919;-70
2021/12/17 08:37:29;;;;;;;;;;;8.30;99.90;;;;;;5097612;28;19923;-69
2021/12/17 08:40:00;;;;;;;;;;;8.30;99.90;;;;;;5114904;28;19919;-69
2021/12/17 08:42:26;;;;;;;;;;;8.30;99.90;;;;;;5112790;28;19953;-69
2021/12/17 08:44:52;;;;;;;;;;;8.30;99.90;;;;;;5114126;28;20246;-70
2021/12/17 08:47:18;;;;;;;;;;;8.30;99.90;;;;;;5113729;28;20364;-70
2021/12/17 08:49:44;;;;;;;;;;;8.30;99.90;;;;;;5097602;28;19920;-69
2021/12/17 08:52:10;;;;;;;;;;;8.40;99.90;;;;;;5097682;28;19970;-68
2021/12/17 08:54:36;;;;;;;;;;;8.40;99.90;;;;;;5114128;28;19919;-69
2021/12/17 08:57:02;;;;;;;;;;;8.40;99.90;;;;;;5115616;27;19945;-68
2021/12/17 08:59:29;;;;;;;;;;;8.40;99.90;;;;;;5096651;28;19923;-69
2021/12/17 09:01:55;;;;;;;;;;;8.40;99.90;;;;;;5114142;28;19924;-69
2021/12/17 09:04:21;;;;;;;;;;;8.40;99.90;;;;;;5113975;28;19919;-69
2021/12/17 09:06:46;;;;;;;;;;;8.40;99.90;;;;;;5096998;28;20391;-69
2021/12/17 09:09:17;;;;;;;;;;;8.40;99.90;;;;;;5097616;28;19976;-70
2021/12/17 09:11:43;;;;;;;;;;;8.50;99.90;;;;;;5114236;28;19978;-67
2021/12/17 09:14:09;;;;;;;;;;;8.50;99.90;;;;;;5096646;28;19965;-67
2021/12/17 09:16:35;;;;;;;;;;;8.50;99.90;;;;;;5096232;28;19987;-67
2021/12/17 09:19:01;;;;;;;;;;;8.60;99.90;;;;;;5097062;28;19926;-67
2021/12/17 09:21:27;;;;;;;;;;;8.50;99.90;;;;;;5113479;28;20323;-68
2021/12/17 09:23:52;;;;;;;;;;;8.60;99.90;;;;;;5113800;28;19920;-68
2021/12/17 09:26:19;;;;;;;;;;;8.50;99.90;;;;;;5079322;28;19919;-70
2021/12/17 09:28:45;;;;;;;;;;;8.60;99.90;;;;;;5114140;27;19927;-68
2021/12/17 09:31:11;;;;;;;;;;;8.60;99.90;;;;;;5113613;28;19919;-69
2021/12/17 09:33:37;;;;;;;;;;;8.60;99.90;;;;;;5095829;28;19919;-68
2021/12/17 09:36:04;;;;;;;;;;;8.60;99.90;;;;;;5096683;28;19920;-69
2021/12/17 09:38:30;;;;;;;;;;;8.60;99.90;;;;;;5096265;28;19927;-69
2021/12/17 09:40:55;;;;;;;;;;;8.60;99.90;;;;;;5094760;28;19927;-68
2021/12/17 09:43:21;;;;;;;;;;;8.70;99.90;;;;;;5112327;28;19943;-69
2021/12/17 09:45:47;;;;;;;;;;;8.70;99.90;;;;;;5096475;28;19920;-67
2021/12/17 09:48:13;;;;;;;;;;;8.70;99.90;;;;;;5095788;28;19927;-68
2021/12/17 09:50:39;;;;;;;;;;;8.70;99.90;;;;;;5112552;28;19993;-68
2021/12/17 09:53:04;;;;;;;;;;;8.70;99.90;;;;;;5093501;28;20412;-69
2021/12/17 09:55:30;;;;;;;;;;;8.70;99.90;;;;;;5109589;28;19919;-69
2021/12/17 09:57:56;;;;;;;;;;;8.70;99.90;;;;;;5110251;28;19924;-70
2021/12/17 10:00:23;;;;;;;;;;;8.70;99.90;;;;;;5111426;28;19920;-71
2021/12/17 10:02:50;;;;;;;;;;;8.80;99.90;;;;;;5112924;28;19919;-69
2021/12/17 10:05:18;;;;;;;;;;;8.80;99.90;;;;;;5078590;28;19920;-68
2021/12/17 10:07:44;;;;;;;;;;;8.80;99.90;;;;;;5111851;28;19919;-70
2021/12/17 10:10:10;;;;;;;;;;;8.80;99.90;;;;;;5112381;28;20344;-68
2021/12/17 10:12:37;;;;;;;;;;;8.80;99.90;;;;;;5111135;28;19981;-68
2021/12/17 10:15:07;;;;;;;;;;;8.80;99.90;;;;;;5111641;28;19980;-67
2021/12/17 10:17:33;;;;;;;;;;;8.80;99.90;;;;;;5094169;28;20028;-67
2021/12/17 10:19:59;;;;;;;;;;;8.80;99.90;;;;;;5095005;28;19957;-68
2021/12/17 10:22:29;;;;;;;;;;;8.80;99.90;;;;;;5094390;28;19920;-70
2021/12/17 10:24:56;;;;;;;;;;;8.80;99.90;;;;;;5111342;28;19927;-68
2021/12/17 10:27:22;;;;;;;;;;;8.80;99.90;;;;;;5112639;28;19935;-68
2021/12/17 10:29:48;;;;;;;;;;;8.90;99.90;;;;;;5094576;28;19923;-68
2021/12/17 10:32:18;;;;;;;;;;;8.90;99.90;;;;;;5094504;28;19920;-67
2021/12/17 10:35:00;;;;;;;;;;;8.90;99.90;;;;;;5094446;28;20547;-66
2021/12/17 10:37:55;;;;;;;;;;;8.90;99.90;;;;;;5110971;28;20002;-71
2021/12/17 10:40:21;;;;;;;;;;;8.90;99.90;;;;;;5109582;28;19925;-67
2021/12/17 10:42:59;;;;;;;;;;;9.00;99.90;;;;;;5110576;28;20006;-68
2021/12/17 10:45:27;;;;;;;;;;;9.00;99.90;;;;;;5111023;28;19942;-69
2021/12/17 10:48:19;;;;;;;;;;;9.00;99.90;;;;;;5110798;28;19967;-66
2021/12/17 10:50:44;;;;;;;;;;;9.00;99.90;;;;;;5094092;28;20283;-67
2021/12/17 10:53:10;;;;;;;;;;;9.00;99.90;;;;;;5110549;28;19919;-67
2021/12/17 10:55:36;;;;;;;;;;;9.00;99.90;;;;;;5107427;28;19920;-66
2021/12/17 10:58:02;;;;;;;;;;;9.00;99.90;;;;;;5110852;28;19926;-67
2021/12/17 11:00:28;;;;;;;;;;;9.10;99.90;;;;;;5110686;28;19942;-70
2021/12/17 11:02:54;;;;;;;;;;;9.10;99.90;;;;;;5110870;28;20318;-67
2021/12/17 11:05:21;;;;;;;;;;;9.10;99.90;;;;;;5111871;28;19919;-67
2021/12/17 11:07:47;;;;;;;;;;;9.10;99.90;;;;;;5093005;28;20401;-66
2021/12/17 11:10:15;;;;;;;;;;;9.10;99.90;;;;;;5093891;28;20257;-67
2021/12/17 11:12:45;;;;;;;;;;;9.10;99.90;;;;;;5111032;28;20022;-66
2021/12/17 11:15:25;;;;;;;6.40;4.30;;;9.10;99.90;;;;;;5110241;28;19920;-67
2021/12/17 11:17:58;;;;;;;;;;;9.20;99.90;;;;;;5110180;28;19919;-66
2021/12/17 11:20:38;;;;;;;;;;;9.20;99.90;;;;;;5093719;28;20375;-66
2021/12/17 11:23:07;;;;;;;;;;;9.10;99.90;;;;;;5111467;28;20396;-65
2021/12/17 11:25:34;;;;;;;;;;;9.20;99.90;;;;;;5110977;28;19919;-65
2021/12/17 11:28:00;;;;;;;;;;;9.20;99.90;;;;;;5111269;28;20009;-67
2021/12/17 11:30:29;;;;;;;;;;;9.20;99.90;;;;;;5111431;28;20396;-66
2021/12/17 11:32:56;;;;;;;;;;;9.20;99.90;;;;;;5109499;28;19924;-67
2021/12/17 11:35:26;;;;;;;;;;;9.20;99.90;;;;;;5110056;28;20395;-66
2021/12/17 11:37:53;;;;;;;;;;;9.20;99.90;;;;;;5110323;28;19930;-68
2021/12/17 11:40:30;;;;;;;;;;;9.20;99.90;;;;;;5109999;28;19919;-67
2021/12/17 11:43:10;;;;;;;;;;;9.20;99.90;;;;;;5093361;28;20280;-66
2021/12/17 11:45:35;;;;;;;;;;;9.20;99.90;;;;;;5092596;28;19971;-67
2021/12/17 11:48:21;;;;;;;;;;;9.20;99.90;;;;;;5093149;28;20441;-65
2021/12/17 11:51:01;;;;;;;;;;;9.20;99.90;;;;;;5092914;28;20428;-65
2021/12/17 11:53:27;;;;;;;;;;;9.20;99.90;;;;;;5111599;28;19927;-64
2021/12/17 11:55:59;;;;;;;;;;;9.20;99.90;;;;;;5093476;28;19920;-65
2021/12/17 11:58:43;;;;;;;;;;;9.20;99.90;;;;;;5110634;28;20022;-65
2021/12/17 12:01:09;;;;;;;;;;;9.20;99.90;;;;;;5110972;28;19926;-69
2021/12/17 12:03:34;;;;;;;;;;;9.30;99.90;;;;;;5111006;28;19920;-72
2021/12/17 12:06:00;;;;;;;;;;;9.30;99.90;;;;;;5130506;27;19920;-68
2021/12/17 12:08:45;;;;;;;;;;;9.40;99.90;;;;;;5116159;28;19926;-69
2021/12/17 12:11:12;;;;;;;;;;;9.40;99.90;;;;;;5115011;28;19920;-66
2021/12/17 12:13:39;;;;;;;;;;;9.40;99.90;;;;;;5115630;28;20000;-69
2021/12/17 12:16:05;;;;;;;;;;;9.30;99.90;;;;;;5115254;28;19940;-68
2021/12/17 12:18:40;;;;;;;;;;;9.40;99.90;;;;;;5115321;28;19926;-68
2021/12/17 12:21:06;;;;;;;;;;;9.40;99.90;;;;;;5115346;28;19989;-66
2021/12/17 12:23:37;;;;;;;;;;;9.40;99.90;;;;;;5098073;28;19920;-66
2021/12/17 12:26:11;;;;;;;;;;;9.40;99.90;;;;;;5114344;28;19979;-66
2021/12/17 12:31:13;;;;;;;;;;;9.40;99.90;;;;;;5114971;28;20034;-66
2021/12/17 12:33:57;;;;;;;;;;;9.30;99.90;;;;;;5115818;28;19920;-70
2021/12/17 12:36:41;;;;;;;;;;;9.40;99.90;;;;;;5114630;28;19920;-66
2021/12/17 12:39:13;;;;;;;;;;;9.30;99.90;;;;;;5114490;28;19923;-65
2021/12/17 12:41:59;;;;;;;;;;;9.30;99.90;;;;;;5115737;27;19967;-67
2021/12/17 12:44:43;;;;;;;;;;;9.30;99.90;;;;;;5097715;28;20406;-66
2021/12/17 12:47:15;;;;;;;;;;;9.30;99.90;;;;;;5114365;28;19919;-67
2021/12/17 12:49:45;;;;;;;;;;;9.30;99.90;;;;;;5114248;28;19920;-71
2021/12/17 12:52:30;;;;;;;;;;;9.40;99.90;;;;;;5080558;28;20030;-66
2021/12/17 12:54:56;;;;;;;;;;;9.40;99.90;;;;;;5096691;28;20381;-67
2021/12/17 12:57:34;;;;;;;;;;;9.30;99.90;;;;;;5114564;28;19924;-66
2021/12/17 13:00:20;;;;;;;;;;;9.40;99.90;;;;;;5096273;28;20010;-67
2021/12/17 13:02:47;;;;;;;;;;;9.40;99.90;;;;;;5113097;28;19919;-66
2021/12/17 13:05:13;;;;;;;;;;;9.40;99.90;;;;;;5114097;28;20014;-66
2021/12/17 13:07:41;;;;;;;;;;;9.40;99.90;;;;;;5113805;28;20018;-65
2021/12/17 13:10:22;;;;;;;;;;;9.40;99.90;;;;;;5096456;28;19945;-67
2021/12/17 13:13:15;;;;;;;;;;;9.40;99.90;;;;;;5113432;28;20425;-68
2021/12/17 13:23:19;;;;;;;;;;;9.40;99.90;;;;;;5114052;28;19920;-69
2021/12/17 13:25:45;;;;;;;;;;;9.40;99.90;;;;;;5096952;28;19919;-73
2021/12/17 13:28:11;;;;;;;;;;;9.40;99.90;;;;;;5096288;28;19927;-72
2021/12/17 13:30:36;;;;;;;;;;;9.40;99.90;;;;;;5096761;28;19919;-73
2021/12/17 13:33:02;;;;;;;;;;;9.40;99.90;;;;;;5113185;28;20353;-70
2021/12/17 13:35:33;;;;;;;;;;;9.50;99.90;;;;;;5113717;28;19924;-70
2021/12/17 13:38:02;;;;;;;;;;;9.50;99.90;;;;;;5113225;28;19923;-69
2021/12/17 13:40:28;;;;;;;;;;;9.40;99.90;;;;;;5114145;28;19920;-69
2021/12/17 13:42:55;;;;;;;;;;;9.40;99.90;;;;;;5112736;28;19926;-69
2021/12/17 13:45:21;;;;;;;;;;;9.40;99.90;;;;;;5113536;28;19920;-70
2021/12/17 13:47:53;;;;;;;;;;;9.40;99.90;;;;;;5113396;28;19950;-70
2021/12/17 13:50:22;;;;;;;;;;;9.40;99.90;;;;;;5096384;28;19970;-70
2021/12/17 13:52:48;;;;;;;;;;;9.40;99.90;;;;;;5096170;28;19924;-70
2021/12/17 13:55:15;;;;;;;;;;;9.50;99.90;;;;;;5095931;28;19927;-69
2021/12/17 13:57:41;;;;;;;;;;;9.50;99.90;;;;;;5114412;28;19927;-70
2021/12/17 14:00:09;;;;;;;;;;;9.40;99.90;;;;;;5112699;28;20409;-70
2021/12/17 14:02:35;;;;;;;;;;;9.40;99.90;;;;;;5113142;28;19935;-69
2021/12/17 14:05:09;;;;;;;;;;;9.50;99.90;;;;;;5112442;28;19968;-71
2021/12/17 14:07:36;;;;;;;;;;;9.50;99.90;;;;;;5095942;28;19924;-70
2021/12/17 14:10:08;;;;;;;;;;;9.50;99.90;;;;;;5112523;28;19919;-69
2021/12/17 14:12:37;;;;;;;;;;;9.50;99.90;;;;;;5095894;28;19920;-68
2021/12/17 14:15:05;;;;;;;;;;;9.50;99.90;;;;;;5112073;28;19919;-69
2021/12/17 14:17:34;;;;;;;;;;;9.50;99.90;;;;;;5113601;28;19926;-71
2021/12/17 14:20:04;;;;;;;;;;;9.50;99.90;;;;;;5112559;28;19931;-69
2021/12/17 14:22:33;;;;;;;;;;;9.50;99.90;;;;;;5113977;28;19924;-70
2021/12/17 14:24:59;;;;;;;;;;;9.50;99.90;;;;;;5113215;28;19944;-70
2021/12/17 14:27:43;;;;;;;;;;;9.60;99.90;;;;;;5078721;28;20337;-70
2021/12/17 14:30:09;;;;;;;;;;;9.50;99.90;;;;;;5095316;28;20036;-70
2021/12/17 14:32:42;;;;;;;;;;;9.50;99.90;;;;;;5113594;28;20006;-69
2021/12/17 14:35:08;;;;;;;;;;;9.50;99.90;;;;;;5111870;28;20296;-70
2021/12/17 14:37:47;;;;;;;;;;;9.50;99.90;;;;;;5095610;28;19920;-71
2021/12/17 14:40:35;;;;;;;;;;;9.40;99.90;;;;;;5111619;28;19920;-70
2021/12/17 14:43:00;;;;;;;;;;;9.50;99.90;;;;;;5111793;28;19920;-69
2021/12/17 14:45:34;;;;;;;;;;;9.50;99.90;;;;;;5095121;28;19920;-68
2021/12/17 14:48:22;;;;;;;;;;;9.50;99.90;;;;;;5095524;28;19920;-68
2021/12/17 15:00:15;;;;;;;;;;;9.40;99.90;;;;;;5097352;28;19923;-68
2021/12/17 15:02:14;;;;;;;;;;;9.50;99.90;;;;;;5097722;28;19965;-69
2021/12/17 15:04:40;;;;;;;;;;;9.50;99.90;;;;;;5097463;28;19920;-68
2021/12/17 15:07:05;;;;;;;;;;;9.50;99.90;;;;;;5111408;28;19927;-68
2021/12/17 15:09:32;;;;;;;;;;;9.50;99.90;;;;;;5094601;28;19920;-67
2021/12/17 15:11:59;;;;;;;;;;;9.50;99.90;;;;;;5094832;28;20020;-68
2021/12/17 15:14:25;;;;;;;;;;;9.40;99.90;;;;;;5093917;28;19981;-69
2021/12/17 15:16:52;;;;;;;;;;;9.40;99.90;;;;;;5111932;28;20353;-68
2021/12/17 15:19:18;;;;;;;;;;;9.40;99.90;;;;;;5094457;28;19920;-68
2021/12/17 15:21:43;;;;;;;;;;;9.40;99.90;;;;;;5111632;28;19992;-68
2021/12/17 15:24:09;;;;;;;;;;;9.40;99.90;;;;;;5111143;28;19965;-68
2021/12/17 15:26:35;;;;;;;;;;;9.40;99.90;;;;;;5111447;28;19920;-68
2021/12/17 15:29:00;;;;;;;;;;;9.30;99.90;;;;;;5077572;28;19926;-70
2021/12/17 15:31:26;;;;;;;;;;;9.30;99.90;;;;;;5111426;28;19924;-68
2021/12/17 15:33:52;;;;;;;;;;;9.30;99.90;;;;;;5111179;28;20350;-68
2021/12/17 15:36:18;;;;;;;;;;;9.30;99.90;;;;;;5094056;28;19923;-68
2021/12/17 15:38:47;;;;;;;;;;;9.20;99.90;;;;;;5111887;28;19942;-68
2021/12/17 15:41:12;;;;;;;;;;;9.20;99.90;;;;;;5110790;28;19923;-68
2021/12/17 15:43:38;;;;;;;;;;;9.20;99.90;;;;;;5111340;28;19995;-68
2021/12/17 15:46:03;;;;;;;;;;;9.20;99.90;;;;;;5111138;28;19920;-69
2021/12/17 15:48:29;;;;;;;;;;;9.10;99.90;;;;;;5094292;28;20011;-68
2021/12/17 15:50:55;;;;;;;;;;;9.20;99.90;;;;;;5094480;28;20485;-68
2021/12/17 15:53:20;;;;;;;;;;;9.10;99.90;;;;;;5092169;28;19915;-69
2021/12/17 15:55:46;;;;;;;;;;;9.10;99.90;;;;;;5093897;28;19920;-67
2021/12/17 15:58:12;;;;;;;;;;;9.10;99.90;;;;;;5110836;28;19920;-69
2021/12/17 16:00:37;;;;;;;;;;;9.10;99.90;;;;;;5094224;28;19928;-68
2021/12/17 16:03:08;;;;;;;;;;;9.10;99.90;;;;;;5110993;28;20314;-67
2021/12/17 16:05:34;;;;;;;;;;;9.10;99.90;;;;;;5094362;28;20357;-67
2021/12/17 16:08:00;;;;;;;;;;;9.00;99.90;;;;;;5111229;28;19997;-68
2021/12/17 16:18:46;;;;;;;;;;;9.00;99.90;;;;;;5112101;28;19926;-67
2021/12/17 16:21:12;;;;;;;;;;;8.90;99.90;;;;;;5110761;28;19927;-67
2021/12/17 16:23:41;;;;;;;;;;;8.90;99.90;;;;;;5093932;28;20249;-67
2021/12/17 16:26:07;;;;;;;;;;;8.90;99.90;;;;;;5111238;28;19919;-69
2021/12/17 16:28:34;;;;;;;;;;;8.90;99.90;;;;;;5093766;28;20018;-66
2021/12/17 16:31:05;;;;;;;;;;;8.80;99.90;;;;;;5077457;28;19919;-67
2021/12/17 16:33:31;;;;;;;;;;;8.80;99.90;;;;;;5110564;28;19926;-67
2021/12/17 16:36:00;;;;;;;;;;;8.80;99.90;;;;;;5111072;28;19923;-68
2021/12/17 16:38:26;;;;;;;;;;;8.80;99.90;;;;;;5110109;28;20021;-67
2021/12/17 16:40:52;;;;;;;;;;;8.80;99.90;;;;;;5094194;28;19942;-66
2021/12/17 16:43:17;;;;;;;;;;;8.80;99.90;;;;;;5110489;28;19924;-67
2021/12/17 16:45:52;;;;;;;;;;;8.70;99.90;;;;;;5111004;28;20006;-68
2021/12/17 16:48:18;;;;;;;;;;;8.70;99.90;;;;;;5110177;28;19923;-68
2021/12/17 16:50:44;;;;;;;;;;;8.70;99.90;;;;;;5110782;28;19920;-68
2021/12/17 16:53:09;;;;;;;;;;;8.60;99.90;;;;;;5095873;28;20010;-66
2021/12/17 16:55:35;;;;;;;;;;;8.60;99.90;;;;;;5113960;28;19919;-66
2021/12/17 16:58:00;;;;;;;;;;;8.60;99.90;;;;;;5114297;28;19920;-67
2021/12/17 17:00:27;;;;;;;;;;;8.60;99.90;;;;;;5080035;28;19959;-67
2021/12/17 17:02:53;;;;;;;;;;;8.60;99.90;;;;;;5097219;28;19926;-66
2021/12/17 17:05:20;;;;;;;;;;;8.60;99.90;;;;;;5113743;28;19926;-67
2021/12/17 17:07:46;;;;;;;;;;;8.60;99.90;;;;;;5114269;28;19919;-66